Terminal Aerodrome Forecast
Issued by NWS Sioux Falls, SD

Home | Current Version | Previous Version | Text Only | Print | Product List | Glossary On
Versions: 1 2 3 4 5 6 7 8 9 10 11 12 13 14 15 16 17 18 19 20 21 22 23 24
832
FTUS43 KFSD 111905 AAA
TAFFSD
TAF AMD
KFSD 111905Z 1119/1218 17009KT 2SM -SN BKN018
     FM112000 16011KT 1 1/2SM -SN OVC015
     FM120200 VRB03KT P6SM OVC010
     FM120600 33006KT P6SM OVC010
     FM121200 36012KT P6SM SCT060
     FM121600 36012G18KT P6SM SKC=

USA.gov is the U.S. government's official web portal to all federal, state and local government web resources and services.